sensor_id;sensor_type;location;lat;lon;timestamp;P1;durP1;ratioP1;P2;durP2;ratioP2
27219;SDS011;45274;52.266;10.790;2023-08-20T00:00:02;10.13;;;6.75;;
27219;SDS011;45274;52.266;10.790;2023-08-20T00:02:29;9.45;;;7.32;;
27219;SDS011;45274;52.266;10.790;2023-08-20T00:04:57;8.70;;;7.00;;
27219;SDS011;45274;52.266;10.790;2023-08-20T00:07:23;10.35;;;6.68;;
27219;SDS011;45274;52.266;10.790;2023-08-20T00:09:49;14.55;;;7.50;;
27219;SDS011;45274;52.266;10.790;2023-08-20T00:12:14;10.07;;;7.68;;
27219;SDS011;45274;52.266;10.790;2023-08-20T00:17:30;9.20;;;7.00;;
27219;SDS011;45274;52.266;10.790;2023-08-20T00:19:57;12.50;;;7.35;;
27219;SDS011;45274;52.266;10.790;2023-08-20T00:22:23;11.82;;;7.50;;
27219;SDS011;45274;52.266;10.790;2023-08-20T00:24:50;9.60;;;7.68;;
27219;SDS011;45274;52.266;10.790;2023-08-20T00:27:16;11.95;;;7.60;;
27219;SDS011;45274;52.266;10.790;2023-08-20T00:29:42;8.57;;;7.68;;
27219;SDS011;45274;52.266;10.790;2023-08-20T00:32:08;10.55;;;7.60;;
27219;SDS011;45274;52.266;10.790;2023-08-20T00:34:34;12.57;;;8.15;;
27219;SDS011;45274;52.266;10.790;2023-08-20T00:37:00;10.13;;;7.88;;
27219;SDS011;45274;52.266;10.790;2023-08-20T00:39:25;10.00;;;7.75;;
27219;SDS011;45274;52.266;10.790;2023-08-20T00:41:51;12.63;;;8.15;;
27219;SDS011;45274;52.266;10.790;2023-08-20T00:44:16;10.38;;;8.55;;
27219;SDS011;45274;52.266;10.790;2023-08-20T00:46:41;8.68;;;7.50;;
27219;SDS011;45274;52.266;10.790;2023-08-20T00:49:07;13.35;;;8.27;;
27219;SDS011;45274;52.266;10.790;2023-08-20T00:51:33;12.73;;;8.98;;
27219;SDS011;45274;52.266;10.790;2023-08-20T00:53:59;10.35;;;8.63;;
27219;SDS011;45274;52.266;10.790;2023-08-20T00:56:26;9.38;;;8.00;;
27219;SDS011;45274;52.266;10.790;2023-08-20T00:58:52;12.10;;;8.48;;
27219;SDS011;45274;52.266;10.790;2023-08-20T01:01:20;11.15;;;8.23;;
27219;SDS011;45274;52.266;10.790;2023-08-20T01:03:46;11.43;;;8.98;;
27219;SDS011;45274;52.266;10.790;2023-08-20T01:09:01;14.20;;;9.60;;
27219;SDS011;45274;52.266;10.790;2023-08-20T01:11:37;10.35;;;8.60;;
27219;SDS011;45274;52.266;10.790;2023-08-20T01:14:15;12.93;;;9.40;;
27219;SDS011;45274;52.266;10.790;2023-08-20T01:16:42;11.80;;;9.55;;
27219;SDS011;45274;52.266;10.790;2023-08-20T01:19:08;10.60;;;9.23;;
27219;SDS011;45274;52.266;10.790;2023-08-20T01:21:45;12.68;;;8.90;;
27219;SDS011;45274;52.266;10.790;2023-08-20T01:30:22;11.95;;;9.52;;
27219;SDS011;45274;52.266;10.790;2023-08-20T01:32:49;15.10;;;9.25;;
27219;SDS011;45274;52.266;10.790;2023-08-20T01:35:17;12.50;;;9.13;;
27219;SDS011;45274;52.266;10.790;2023-08-20T01:37:43;10.48;;;8.88;;
27219;SDS011;45274;52.266;10.790;2023-08-20T01:40:08;11.82;;;9.13;;
27219;SDS011;45274;52.266;10.790;2023-08-20T01:42:37;12.63;;;8.95;;
27219;SDS011;45274;52.266;10.790;2023-08-20T01:45:04;13.52;;;9.05;;
27219;SDS011;45274;52.266;10.790;2023-08-20T01:47:31;12.75;;;9.05;;
27219;SDS011;45274;52.266;10.790;2023-08-20T01:49:56;13.65;;;9.27;;
27219;SDS011;45274;52.266;10.790;2023-08-20T01:52:22;11.00;;;8.35;;
27219;SDS011;45274;52.266;10.790;2023-08-20T01:54:48;11.50;;;9.13;;
27219;SDS011;45274;52.266;10.790;2023-08-20T01:57:14;12.05;;;9.38;;
27219;SDS011;45274;52.266;10.790;2023-08-20T01:59:39;12.50;;;9.38;;
27219;SDS011;45274;52.266;10.790;2023-08-20T02:02:05;12.27;;;8.85;;
27219;SDS011;45274;52.266;10.790;2023-08-20T02:04:31;10.05;;;8.80;;
27219;SDS011;45274;52.266;10.790;2023-08-20T02:06:57;14.05;;;9.38;;
27219;SDS011;45274;52.266;10.790;2023-08-20T02:09:22;14.32;;;8.90;;
27219;SDS011;45274;52.266;10.790;2023-08-20T02:11:47;10.77;;;8.50;;
27219;SDS011;45274;52.266;10.790;2023-08-20T02:14:13;9.57;;;8.20;;
27219;SDS011;45274;52.266;10.790;2023-08-20T02:16:38;9.57;;;8.20;;
27219;SDS011;45274;52.266;10.790;2023-08-20T02:19:05;12.98;;;8.30;;
27219;SDS011;45274;52.266;10.790;2023-08-20T02:21:31;10.60;;;7.63;;
27219;SDS011;45274;52.266;10.790;2023-08-20T02:23:57;11.38;;;7.97;;
27219;SDS011;45274;52.266;10.790;2023-08-20T02:26:22;12.38;;;8.25;;
27219;SDS011;45274;52.266;10.790;2023-08-20T02:28:48;8.77;;;7.55;;
27219;SDS011;45274;52.266;10.790;2023-08-20T02:31:13;9.00;;;7.70;;
27219;SDS011;45274;52.266;10.790;2023-08-20T02:33:39;11.20;;;7.35;;
27219;SDS011;45274;52.266;10.790;2023-08-20T02:36:04;10.27;;;7.35;;
27219;SDS011;45274;52.266;10.790;2023-08-20T02:38:30;10.73;;;7.80;;
27219;SDS011;45274;52.266;10.790;2023-08-20T02:40:56;10.02;;;7.80;;
27219;SDS011;45274;52.266;10.790;2023-08-20T02:43:21;8.93;;;6.97;;
27219;SDS011;45274;52.266;10.790;2023-08-20T02:45:46;11.00;;;7.63;;
27219;SDS011;45274;52.266;10.790;2023-08-20T02:48:12;9.85;;;8.13;;
27219;SDS011;45274;52.266;10.790;2023-08-20T02:50:39;9.90;;;7.28;;
27219;SDS011;45274;52.266;10.790;2023-08-20T02:53:04;10.75;;;7.53;;
27219;SDS011;45274;52.266;10.790;2023-08-20T02:55:30;9.13;;;7.57;;
27219;SDS011;45274;52.266;10.790;2023-08-20T02:57:56;10.23;;;8.07;;
27219;SDS011;45274;52.266;10.790;2023-08-20T03:00:22;11.25;;;7.72;;
27219;SDS011;45274;52.266;10.790;2023-08-20T03:02:47;8.77;;;7.10;;
27219;SDS011;45274;52.266;10.790;2023-08-20T03:05:12;10.38;;;7.60;;
27219;SDS011;45274;52.266;10.790;2023-08-20T03:07:38;12.25;;;7.30;;
27219;SDS011;45274;52.266;10.790;2023-08-20T03:10:03;10.27;;;7.60;;
27219;SDS011;45274;52.266;10.790;2023-08-20T03:12:29;8.43;;;6.95;;
27219;SDS011;45274;52.266;10.790;2023-08-20T03:14:55;7.97;;;7.13;;
27219;SDS011;45274;52.266;10.790;2023-08-20T03:17:20;9.63;;;7.45;;
27219;SDS011;45274;52.266;10.790;2023-08-20T03:19:58;8.85;;;6.63;;
27219;SDS011;45274;52.266;10.790;2023-08-20T03:22:25;8.55;;;6.47;;
27219;SDS011;45274;52.266;10.790;2023-08-20T03:24:51;8.40;;;7.18;;
27219;SDS011;45274;52.266;10.790;2023-08-20T03:27:17;11.00;;;7.38;;
27219;SDS011;45274;52.266;10.790;2023-08-20T03:29:43;9.20;;;7.25;;
27219;SDS011;45274;52.266;10.790;2023-08-20T03:32:09;9.80;;;7.20;;
27219;SDS011;45274;52.266;10.790;2023-08-20T03:34:34;8.60;;;7.00;;
27219;SDS011;45274;52.266;10.790;2023-08-20T03:37:00;8.93;;;7.10;;
27219;SDS011;45274;52.266;10.790;2023-08-20T03:39:26;9.05;;;6.70;;
27219;SDS011;45274;52.266;10.790;2023-08-20T03:41:52;8.73;;;7.03;;
27219;SDS011;45274;52.266;10.790;2023-08-20T03:44:17;8.50;;;7.03;;
27219;SDS011;45274;52.266;10.790;2023-08-20T03:46:43;9.48;;;6.22;;
27219;SDS011;45274;52.266;10.790;2023-08-20T03:49:08;7.20;;;6.50;;
27219;SDS011;45274;52.266;10.790;2023-08-20T03:51:34;8.23;;;6.90;;
27219;SDS011;45274;52.266;10.790;2023-08-20T03:53:59;8.68;;;7.20;;
27219;SDS011;45274;52.266;10.790;2023-08-20T03:56:25;9.23;;;6.97;;
27219;SDS011;45274;52.266;10.790;2023-08-20T03:58:50;9.35;;;6.97;;
27219;SDS011;45274;52.266;10.790;2023-08-20T04:01:15;9.02;;;7.25;;
27219;SDS011;45274;52.266;10.790;2023-08-20T04:03:41;8.82;;;6.70;;
27219;SDS011;45274;52.266;10.790;2023-08-20T04:06:06;9.20;;;7.13;;
27219;SDS011;45274;52.266;10.790;2023-08-20T04:08:32;9.45;;;7.50;;
27219;SDS011;45274;52.266;10.790;2023-08-20T04:10:57;8.55;;;6.90;;
27219;SDS011;45274;52.266;10.790;2023-08-20T04:13:23;8.98;;;7.15;;
27219;SDS011;45274;52.266;10.790;2023-08-20T04:15:48;10.02;;;7.25;;
27219;SDS011;45274;52.266;10.790;2023-08-20T04:18:13;10.20;;;7.50;;
27219;SDS011;45274;52.266;10.790;2023-08-20T04:20:39;9.93;;;7.80;;
27219;SDS011;45274;52.266;10.790;2023-08-20T04:23:04;8.90;;;7.78;;
27219;SDS011;45274;52.266;10.790;2023-08-20T04:25:29;11.15;;;7.50;;
27219;SDS011;45274;52.266;10.790;2023-08-20T04:27:55;10.50;;;7.32;;
27219;SDS011;45274;52.266;10.790;2023-08-20T04:30:20;9.60;;;7.57;;
27219;SDS011;45274;52.266;10.790;2023-08-20T04:32:45;10.10;;;7.10;;
27219;SDS011;45274;52.266;10.790;2023-08-20T04:35:11;8.13;;;7.32;;
27219;SDS011;45274;52.266;10.790;2023-08-20T04:37:36;8.80;;;6.97;;
27219;SDS011;45274;52.266;10.790;2023-08-20T04:40:02;9.75;;;6.97;;
27219;SDS011;45274;52.266;10.790;2023-08-20T04:42:30;10.80;;;7.10;;
27219;SDS011;45274;52.266;10.790;2023-08-20T04:44:56;11.32;;;7.18;;
27219;SDS011;45274;52.266;10.790;2023-08-20T04:47:21;11.00;;;7.70;;
27219;SDS011;45274;52.266;10.790;2023-08-20T04:49:47;9.30;;;6.85;;
27219;SDS011;45274;52.266;10.790;2023-08-20T04:52:12;9.23;;;7.47;;
27219;SDS011;45274;52.266;10.790;2023-08-20T04:54:38;10.43;;;8.05;;
27219;SDS011;45274;52.266;10.790;2023-08-20T04:57:03;9.32;;;7.25;;
27219;SDS011;45274;52.266;10.790;2023-08-20T04:59:29;10.45;;;7.85;;
27219;SDS011;45274;52.266;10.790;2023-08-20T05:01:54;12.88;;;8.45;;
27219;SDS011;45274;52.266;10.790;2023-08-20T05:04:19;9.95;;;8.40;;
27219;SDS011;45274;52.266;10.790;2023-08-20T05:06:45;9.60;;;8.05;;
27219;SDS011;45274;52.266;10.790;2023-08-20T05:09:10;9.00;;;7.45;;
27219;SDS011;45274;52.266;10.790;2023-08-20T05:11:35;10.13;;;8.02;;
27219;SDS011;45274;52.266;10.790;2023-08-20T05:14:01;11.93;;;8.13;;
27219;SDS011;45274;52.266;10.790;2023-08-20T05:16:26;13.15;;;8.27;;
27219;SDS011;45274;52.266;10.790;2023-08-20T05:18:52;10.65;;;7.50;;
27219;SDS011;45274;52.266;10.790;2023-08-20T05:21:17;9.77;;;7.63;;
27219;SDS011;45274;52.266;10.790;2023-08-20T05:23:43;10.48;;;7.78;;
27219;SDS011;45274;52.266;10.790;2023-08-20T05:26:08;9.90;;;8.02;;
27219;SDS011;45274;52.266;10.790;2023-08-20T05:28:33;10.88;;;7.38;;
27219;SDS011;45274;52.266;10.790;2023-08-20T05:30:59;10.73;;;7.70;;
27219;SDS011;45274;52.266;10.790;2023-08-20T05:33:25;9.90;;;7.20;;
27219;SDS011;45274;52.266;10.790;2023-08-20T05:35:51;10.93;;;6.70;;
27219;SDS011;45274;52.266;10.790;2023-08-20T05:38:17;8.38;;;6.85;;
27219;SDS011;45274;52.266;10.790;2023-08-20T05:40:42;9.57;;;7.38;;
27219;SDS011;45274;52.266;10.790;2023-08-20T05:43:08;9.70;;;7.30;;
27219;SDS011;45274;52.266;10.790;2023-08-20T10:03:36;4.82;;;2.40;;
27219;SDS011;45274;52.266;10.790;2023-08-20T10:06:06;3.40;;;2.00;;
27219;SDS011;45274;52.266;10.790;2023-08-20T10:08:32;3.05;;;2.17;;
27219;SDS011;45274;52.266;10.790;2023-08-20T10:10:58;3.40;;;2.20;;
27219;SDS011;45274;52.266;10.790;2023-08-20T10:13:23;2.92;;;1.90;;
27219;SDS011;45274;52.266;10.790;2023-08-20T10:15:49;5.05;;;1.70;;
27219;SDS011;45274;52.266;10.790;2023-08-20T10:18:18;3.67;;;1.90;;
27219;SDS011;45274;52.266;10.790;2023-08-20T10:20:44;5.90;;;2.10;;
27219;SDS011;45274;52.266;10.790;2023-08-20T10:23:10;2.42;;;2.00;;
27219;SDS011;45274;52.266;10.790;2023-08-20T10:25:40;3.08;;;1.80;;
27219;SDS011;45274;52.266;10.790;2023-08-20T10:28:21;4.38;;;2.00;;
27219;SDS011;45274;52.266;10.790;2023-08-20T10:31:07;2.53;;;1.60;;
27219;SDS011;45274;52.266;10.790;2023-08-20T11:30:41;5.30;;;1.95;;
27219;SDS011;45274;52.266;10.790;2023-08-20T11:51:13;6.47;;;2.30;;
27219;SDS011;45274;52.266;10.790;2023-08-20T12:01:06;5.55;;;1.80;;
27219;SDS011;45274;52.266;10.790;2023-08-20T12:06:52;3.92;;;2.22;;
27219;SDS011;45274;52.266;10.790;2023-08-20T12:09:41;4.32;;;2.15;;
27219;SDS011;45274;52.266;10.790;2023-08-20T12:12:07;6.97;;;2.13;;
27219;SDS011;45274;52.266;10.790;2023-08-20T12:14:34;5.72;;;1.92;;
27219;SDS011;45274;52.266;10.790;2023-08-20T12:17:00;5.28;;;1.95;;
27219;SDS011;45274;52.266;10.790;2023-08-20T12:28:08;5.32;;;2.10;;
27219;SDS011;45274;52.266;10.790;2023-08-20T12:30:34;3.60;;;2.00;;
27219;SDS011;45274;52.266;10.790;2023-08-20T12:33:03;5.90;;;2.30;;
27219;SDS011;45274;52.266;10.790;2023-08-20T12:35:32;2.90;;;1.90;;
27219;SDS011;45274;52.266;10.790;2023-08-20T12:37:57;4.95;;;1.83;;
27219;SDS011;45274;52.266;10.790;2023-08-20T12:40:23;4.13;;;1.77;;
27219;SDS011;45274;52.266;10.790;2023-08-20T12:42:49;4.53;;;1.85;;
27219;SDS011;45274;52.266;10.790;2023-08-20T12:45:17;5.75;;;2.10;;
27219;SDS011;45274;52.266;10.790;2023-08-20T12:47:42;9.38;;;2.30;;
27219;SDS011;45274;52.266;10.790;2023-08-20T12:50:11;5.22;;;2.03;;
27219;SDS011;45274;52.266;10.790;2023-08-20T12:52:38;3.88;;;1.90;;
27219;SDS011;45274;52.266;10.790;2023-08-20T12:55:04;5.20;;;2.00;;
27219;SDS011;45274;52.266;10.790;2023-08-20T12:57:36;6.88;;;2.50;;
27219;SDS011;45274;52.266;10.790;2023-08-20T13:00:02;4.78;;;2.00;;
27219;SDS011;45274;52.266;10.790;2023-08-20T13:02:38;12.32;;;2.63;;
27219;SDS011;45274;52.266;10.790;2023-08-20T13:05:09;5.53;;;2.60;;
27219;SDS011;45274;52.266;10.790;2023-08-20T13:07:36;6.93;;;2.30;;
27219;SDS011;45274;52.266;10.790;2023-08-20T13:10:04;3.65;;;2.10;;
27219;SDS011;45274;52.266;10.790;2023-08-20T13:12:43;6.28;;;2.03;;
27219;SDS011;45274;52.266;10.790;2023-08-20T13:15:27;4.78;;;2.10;;
27219;SDS011;45274;52.266;10.790;2023-08-20T13:17:53;3.50;;;2.00;;
27219;SDS011;45274;52.266;10.790;2023-08-20T13:20:19;4.53;;;2.10;;
27219;SDS011;45274;52.266;10.790;2023-08-20T13:22:49;5.97;;;1.98;;
27219;SDS011;45274;52.266;10.790;2023-08-20T13:26:00;3.38;;;2.00;;
27219;SDS011;45274;52.266;10.790;2023-08-20T13:28:52;5.55;;;2.17;;
27219;SDS011;45274;52.266;10.790;2023-08-20T13:34:51;4.95;;;2.30;;
27219;SDS011;45274;52.266;10.790;2023-08-20T13:37:17;6.47;;;2.20;;
27219;SDS011;45274;52.266;10.790;2023-08-20T13:39:42;4.15;;;2.30;;
27219;SDS011;45274;52.266;10.790;2023-08-20T13:42:08;4.88;;;2.25;;
27219;SDS011;45274;52.266;10.790;2023-08-20T13:44:34;4.28;;;2.13;;
27219;SDS011;45274;52.266;10.790;2023-08-20T13:47:07;5.20;;;2.30;;
27219;SDS011;45274;52.266;10.790;2023-08-20T13:49:43;3.47;;;2.17;;
27219;SDS011;45274;52.266;10.790;2023-08-20T13:52:09;3.38;;;2.30;;
27219;SDS011;45274;52.266;10.790;2023-08-20T13:54:35;3.72;;;2.30;;
27219;SDS011;45274;52.266;10.790;2023-08-20T13:57:01;4.65;;;2.35;;
27219;SDS011;45274;52.266;10.790;2023-08-20T13:59:28;6.30;;;2.15;;
27219;SDS011;45274;52.266;10.790;2023-08-20T14:01:54;3.38;;;2.30;;
27219;SDS011;45274;52.266;10.790;2023-08-20T14:04:19;5.32;;;2.40;;
27219;SDS011;45274;52.266;10.790;2023-08-20T14:06:45;3.83;;;2.00;;
27219;SDS011;45274;52.266;10.790;2023-08-20T14:09:11;5.30;;;2.65;;
27219;SDS011;45274;52.266;10.790;2023-08-20T14:11:36;5.43;;;2.42;;
27219;SDS011;45274;52.266;10.790;2023-08-20T14:14:02;5.97;;;2.28;;
27219;SDS011;45274;52.266;10.790;2023-08-20T14:16:34;4.07;;;2.05;;
27219;SDS011;45274;52.266;10.790;2023-08-20T14:19:05;5.53;;;2.50;;
27219;SDS011;45274;52.266;10.790;2023-08-20T14:21:32;8.60;;;2.40;;
27219;SDS011;45274;52.266;10.790;2023-08-20T14:23:58;4.40;;;2.38;;
27219;SDS011;45274;52.266;10.790;2023-08-20T14:26:23;4.70;;;2.38;;
27219;SDS011;45274;52.266;10.790;2023-08-20T14:28:52;4.05;;;2.30;;
27219;SDS011;45274;52.266;10.790;2023-08-20T14:31:17;3.63;;;2.30;;
27219;SDS011;45274;52.266;10.790;2023-08-20T14:33:44;6.20;;;2.47;;
27219;SDS011;45274;52.266;10.790;2023-08-20T14:36:09;4.13;;;2.20;;
27219;SDS011;45274;52.266;10.790;2023-08-20T14:38:35;3.28;;;2.22;;
27219;SDS011;45274;52.266;10.790;2023-08-20T14:41:01;5.63;;;2.38;;
27219;SDS011;45274;52.266;10.790;2023-08-20T14:43:27;5.32;;;2.30;;
27219;SDS011;45274;52.266;10.790;2023-08-20T14:45:53;6.93;;;2.67;;
27219;SDS011;45274;52.266;10.790;2023-08-20T14:48:22;6.32;;;2.35;;
27219;SDS011;45274;52.266;10.790;2023-08-20T14:50:48;6.78;;;2.42;;
27219;SDS011;45274;52.266;10.790;2023-08-20T14:53:14;10.27;;;2.85;;
27219;SDS011;45274;52.266;10.790;2023-08-20T14:55:39;6.47;;;2.55;;
27219;SDS011;45274;52.266;10.790;2023-08-20T14:58:05;5.45;;;2.15;;
27219;SDS011;45274;52.266;10.790;2023-08-20T15:00:39;3.45;;;2.35;;
27219;SDS011;45274;52.266;10.790;2023-08-20T15:03:07;3.88;;;2.60;;
27219;SDS011;45274;52.266;10.790;2023-08-20T15:06:19;3.88;;;2.40;;
27219;SDS011;45274;52.266;10.790;2023-08-20T15:08:47;3.28;;;2.17;;
27219;SDS011;45274;52.266;10.790;2023-08-20T15:11:12;4.88;;;2.40;;
27219;SDS011;45274;52.266;10.790;2023-08-20T15:13:38;4.63;;;2.53;;
27219;SDS011;45274;52.266;10.790;2023-08-20T15:16:22;4.57;;;2.40;;
27219;SDS011;45274;52.266;10.790;2023-08-20T15:18:47;3.58;;;2.30;;
27219;SDS011;45274;52.266;10.790;2023-08-20T15:21:19;4.75;;;2.60;;
27219;SDS011;45274;52.266;10.790;2023-08-20T15:23:49;4.20;;;2.30;;
27219;SDS011;45274;52.266;10.790;2023-08-20T15:26:26;7.70;;;2.28;;
27219;SDS011;45274;52.266;10.790;2023-08-20T15:29:17;5.78;;;2.70;;
27219;SDS011;45274;52.266;10.790;2023-08-20T15:31:51;3.00;;;2.15;;
27219;SDS011;45274;52.266;10.790;2023-08-20T15:34:17;4.50;;;2.20;;
27219;SDS011;45274;52.266;10.790;2023-08-20T15:36:43;4.07;;;2.17;;
27219;SDS011;45274;52.266;10.790;2023-08-20T15:39:33;6.55;;;2.47;;
27219;SDS011;45274;52.266;10.790;2023-08-20T15:42:10;4.53;;;2.20;;
27219;SDS011;45274;52.266;10.790;2023-08-20T15:44:52;4.18;;;2.53;;
27219;SDS011;45274;52.266;10.790;2023-08-20T15:47:24;4.03;;;1.90;;
27219;SDS011;45274;52.266;10.790;2023-08-20T15:50:10;4.05;;;2.00;;
27219;SDS011;45274;52.266;10.790;2023-08-20T15:55:51;6.93;;;2.13;;
27219;SDS011;45274;52.266;10.790;2023-08-20T16:05:13;3.25;;;1.90;;
27219;SDS011;45274;52.266;10.790;2023-08-20T16:07:42;4.80;;;2.38;;
27219;SDS011;45274;52.266;10.790;2023-08-20T16:10:13;3.85;;;2.25;;
27219;SDS011;45274;52.266;10.790;2023-08-20T16:15:58;4.68;;;2.10;;
27219;SDS011;45274;52.266;10.790;2023-08-20T16:22:19;4.60;;;2.20;;
27219;SDS011;45274;52.266;10.790;2023-08-20T16:28:27;5.28;;;2.20;;
27219;SDS011;45274;52.266;10.790;2023-08-20T16:30:53;4.82;;;1.90;;
27219;SDS011;45274;52.266;10.790;2023-08-20T16:33:31;4.80;;;2.10;;
27219;SDS011;45274;52.266;10.790;2023-08-20T16:36:02;5.10;;;1.98;;
27219;SDS011;45274;52.266;10.790;2023-08-20T16:38:40;6.63;;;2.67;;
27219;SDS011;45274;52.266;10.790;2023-08-20T16:41:06;2.67;;;2.15;;
27219;SDS011;45274;52.266;10.790;2023-08-20T16:43:31;5.53;;;2.25;;
27219;SDS011;45274;52.266;10.790;2023-08-20T16:49:36;5.05;;;2.25;;
27219;SDS011;45274;52.266;10.790;2023-08-20T16:52:06;4.50;;;2.20;;
27219;SDS011;45274;52.266;10.790;2023-08-20T16:55:07;4.60;;;2.13;;
27219;SDS011;45274;52.266;10.790;2023-08-20T16:57:55;5.43;;;2.15;;
27219;SDS011;45274;52.266;10.790;2023-08-20T17:00:46;7.40;;;2.67;;
27219;SDS011;45274;52.266;10.790;2023-08-20T17:03:21;5.85;;;1.95;;
27219;SDS011;45274;52.266;10.790;2023-08-20T17:06:01;5.28;;;2.15;;
27219;SDS011;45274;52.266;10.790;2023-08-20T17:22:00;11.68;;;2.35;;
27219;SDS011;45274;52.266;10.790;2023-08-20T17:24:26;4.72;;;2.80;;
27219;SDS011;45274;52.266;10.790;2023-08-20T17:26:53;8.85;;;2.33;;
27219;SDS011;45274;52.266;10.790;2023-08-20T17:29:19;5.43;;;2.50;;
27219;SDS011;45274;52.266;10.790;2023-08-20T17:31:49;4.00;;;2.20;;
27219;SDS011;45274;52.266;10.790;2023-08-20T17:34:15;3.88;;;2.30;;
27219;SDS011;45274;52.266;10.790;2023-08-20T17:36:47;3.72;;;2.42;;
27219;SDS011;45274;52.266;10.790;2023-08-20T17:39:31;3.50;;;2.30;;
27219;SDS011;45274;52.266;10.790;2023-08-20T18:10:17;3.58;;;2.13;;
27219;SDS011;45274;52.266;10.790;2023-08-20T20:42:59;6.88;;;2.92;;
27219;SDS011;45274;52.266;10.790;2023-08-20T20:45:27;4.90;;;2.67;;
27219;SDS011;45274;52.266;10.790;2023-08-20T20:48:11;9.50;;;2.78;;
27219;SDS011;45274;52.266;10.790;2023-08-20T20:50:50;3.25;;;2.20;;
27219;SDS011;45274;52.266;10.790;2023-08-20T21:12:13;4.80;;;2.42;;
27219;SDS011;45274;52.266;10.790;2023-08-20T21:14:53;3.58;;;2.70;;
27219;SDS011;45274;52.266;10.790;2023-08-20T21:17:21;7.03;;;2.80;;
27219;SDS011;45274;52.266;10.790;2023-08-20T21:19:49;4.28;;;2.78;;
27219;SDS011;45274;52.266;10.790;2023-08-20T21:22:15;9.50;;;2.90;;
27219;SDS011;45274;52.266;10.790;2023-08-20T21:24:40;3.97;;;2.50;;
27219;SDS011;45274;52.266;10.790;2023-08-20T21:27:09;4.35;;;2.60;;
27219;SDS011;45274;52.266;10.790;2023-08-20T21:29:37;8.63;;;2.83;;
27219;SDS011;45274;52.266;10.790;2023-08-20T21:32:06;6.25;;;2.90;;
27219;SDS011;45274;52.266;10.790;2023-08-20T21:34:32;5.38;;;2.53;;
27219;SDS011;45274;52.266;10.790;2023-08-20T21:37:01;6.63;;;2.92;;
27219;SDS011;45274;52.266;10.790;2023-08-20T21:39:33;10.13;;;3.13;;
27219;SDS011;45274;52.266;10.790;2023-08-20T21:41:58;6.35;;;3.05;;
27219;SDS011;45274;52.266;10.790;2023-08-20T21:44:31;8.00;;;2.90;;
27219;SDS011;45274;52.266;10.790;2023-08-20T21:46:58;9.32;;;3.40;;
27219;SDS011;45274;52.266;10.790;2023-08-20T21:49:25;7.60;;;3.10;;
27219;SDS011;45274;52.266;10.790;2023-08-20T21:51:50;6.95;;;3.00;;
27219;SDS011;45274;52.266;10.790;2023-08-20T21:54:19;6.38;;;2.78;;
27219;SDS011;45274;52.266;10.790;2023-08-20T21:56:48;7.50;;;2.75;;
27219;SDS011;45274;52.266;10.790;2023-08-20T21:59:17;6.00;;;2.75;;
27219;SDS011;45274;52.266;10.790;2023-08-20T22:01:43;5.70;;;2.50;;
27219;SDS011;45274;52.266;10.790;2023-08-20T22:04:08;5.05;;;2.47;;
27219;SDS011;45274;52.266;10.790;2023-08-20T22:06:34;4.85;;;2.70;;
27219;SDS011;45274;52.266;10.790;2023-08-20T22:08:59;6.03;;;2.85;;
27219;SDS011;45274;52.266;10.790;2023-08-20T22:11:25;6.80;;;3.30;;
27219;SDS011;45274;52.266;10.790;2023-08-20T22:13:53;7.60;;;3.25;;
27219;SDS011;45274;52.266;10.790;2023-08-20T22:16:19;6.20;;;2.70;;
27219;SDS011;45274;52.266;10.790;2023-08-20T22:18:45;10.25;;;3.00;;
27219;SDS011;45274;52.266;10.790;2023-08-20T22:21:10;5.22;;;2.95;;
27219;SDS011;45274;52.266;10.790;2023-08-20T22:23:36;4.05;;;2.72;;
27219;SDS011;45274;52.266;10.790;2023-08-20T22:26:01;5.60;;;3.15;;
27219;SDS011;45274;52.266;10.790;2023-08-20T22:28:28;10.65;;;2.83;;
27219;SDS011;45274;52.266;10.790;2023-08-20T22:30:53;8.73;;;3.15;;
27219;SDS011;45274;52.266;10.790;2023-08-20T22:33:19;4.95;;;2.70;;
27219;SDS011;45274;52.266;10.790;2023-08-20T22:35:48;5.60;;;2.80;;
27219;SDS011;45274;52.266;10.790;2023-08-20T22:38:16;5.78;;;3.15;;
27219;SDS011;45274;52.266;10.790;2023-08-20T22:40:42;4.80;;;3.15;;
27219;SDS011;45274;52.266;10.790;2023-08-20T22:43:08;7.45;;;3.50;;
27219;SDS011;45274;52.266;10.790;2023-08-20T22:45:36;9.25;;;3.20;;
27219;SDS011;45274;52.266;10.790;2023-08-20T22:48:02;5.53;;;3.70;;
27219;SDS011;45274;52.266;10.790;2023-08-20T22:50:31;6.70;;;3.55;;
27219;SDS011;45274;52.266;10.790;2023-08-20T22:52:56;8.52;;;3.63;;
27219;SDS011;45274;52.266;10.790;2023-08-20T22:55:22;5.40;;;3.70;;
27219;SDS011;45274;52.266;10.790;2023-08-20T22:57:48;7.25;;;3.65;;
27219;SDS011;45274;52.266;10.790;2023-08-20T23:00:14;6.75;;;3.45;;
27219;SDS011;45274;52.266;10.790;2023-08-20T23:02:40;4.88;;;3.50;;
27219;SDS011;45274;52.266;10.790;2023-08-20T23:05:05;7.53;;;3.50;;
27219;SDS011;45274;52.266;10.790;2023-08-20T23:07:34;5.25;;;3.80;;
27219;SDS011;45274;52.266;10.790;2023-08-20T23:09:59;6.10;;;3.92;;
27219;SDS011;45274;52.266;10.790;2023-08-20T23:12:25;7.50;;;4.22;;
27219;SDS011;45274;52.266;10.790;2023-08-20T23:14:53;8.15;;;4.15;;
27219;SDS011;45274;52.266;10.790;2023-08-20T23:17:18;5.72;;;4.15;;
27219;SDS011;45274;52.266;10.790;2023-08-20T23:19:47;5.47;;;3.63;;
27219;SDS011;45274;52.266;10.790;2023-08-20T23:22:18;6.80;;;4.00;;
27219;SDS011;45274;52.266;10.790;2023-08-20T23:24:47;6.68;;;3.58;;
27219;SDS011;45274;52.266;10.790;2023-08-20T23:27:12;6.72;;;4.18;;
27219;SDS011;45274;52.266;10.790;2023-08-20T23:29:38;5.55;;;3.95;;
27219;SDS011;45274;52.266;10.790;2023-08-20T23:32:03;5.50;;;3.58;;
27219;SDS011;45274;52.266;10.790;2023-08-20T23:34:32;6.60;;;3.47;;
27219;SDS011;45274;52.266;10.790;2023-08-20T23:37:00;7.82;;;3.67;;
27219;SDS011;45274;52.266;10.790;2023-08-20T23:39:25;7.32;;;3.70;;
27219;SDS011;45274;52.266;10.790;2023-08-20T23:41:51;6.97;;;3.95;;
27219;SDS011;45274;52.266;10.790;2023-08-20T23:44:16;7.72;;;3.83;;
27219;SDS011;45274;52.266;10.790;2023-08-20T23:46:42;7.13;;;3.35;;
27219;SDS011;45274;52.266;10.790;2023-08-20T23:49:09;8.45;;;3.92;;
27219;SDS011;45274;52.266;10.790;2023-08-20T23:51:35;10.02;;;3.40;;
27219;SDS011;45274;52.266;10.790;2023-08-20T23:54:00;8.88;;;4.00;;
27219;SDS011;45274;52.266;10.790;2023-08-20T23:56:26;9.88;;;3.78;;
27219;SDS011;45274;52.266;10.790;2023-08-20T23:58:52;9.68;;;3.63;;
